Station info - map view · info · telemetry · weather · raw · status · beacons · messages · bulletins · browse · moving · my account
Callsign, ship name or locator: Clear       
It is possible to search using wildcards (*?) after a prefix. Example: OH*
APRS station OE5ERN-9 - show graphs
Map loading...
Comment: 12.6V
Last status: Erwin mobil, oe5ern@arrl.net
Location: 48°18.51' N 14°17.44' E - locator JN78DH44VB - show map - static map
452.4 yards Northeast bearing 55° from Linz, Upper Austria, Austria [?]
5.2 miles Southwest bearing 212° from Altenberg bei Linz, Politischer Bezirk Urfahr Umgebung, Upper Austria, Austria
67.4 miles Northeast bearing 58° from Salzburg, Salzburg, Austria
Last position: 2021-06-24 10:35:13 EDT (6h ago)
2021-06-24 16:35:13 CEST local time at Linz, Austria [?]
Altitude: 762 ft
Course: 232°
Speed: 16 MPH
Device: Argent Data Systems: OpenTracker (tracker)
Last path: OE5ERN-9>APOTC1 via OE5XOL-10,OE5WWO,WIDE2*,qAR,OE3XLR (good)
Positions stored: 131561
Other SSIDs: OE5ERN OE5ERN-1 OE5ERN-10 OE5ERN-11 OE5ERN-12 OE5ERN-13 OE5ERN-15 OE5ERN-2 OE5ERN-7 OE5ERN-8 OE5ERN-B OE5ERN-DP OE5ERN-N
Stations near current position of OE5ERN-9 - show more
callsign distance last heard - EDT      callsign distance last heard - EDT
LINZERIN141.7 yards 311°2021-06-24 13:30:53 WALROSS421.7 yards 336°2021-06-24 12:25:29
PRIMADONNA462.6 yards 347°2021-06-24 16:34:50 MS SISSI510.8 yards 252°2021-06-24 16:33:50
OE5PSM0.3 miles 242°2021-06-24 16:20:02 OE5PSM-100.4 miles 243°2021-06-24 15:53:22
OE5XYZ-100.4 miles 240°2021-06-24 04:20:42 MACKO0.5 miles 17°2021-06-14 05:06:48
OE5OEM-90.6 miles 193°2021-06-24 10:37:48 OE5OMP-90.6 miles 276°2021-06-01 23:03:23
EL-OE5XMO0.6 miles 177°2021-06-24 16:34:23 SPIRIT0.7 miles 24°2021-06-24 03:36:04
MUSTANG0.9 miles 251°2021-06-24 16:33:50 RAINBACH0.9 miles 257°2021-06-23 11:20:35
OE5HDX-71.0 miles 131°2021-06-19 10:32:49 TOKAJ 21.0 miles 258°2021-06-21 06:02:00
OE5LHM-121.0 miles 47°2021-06-15 05:04:17 NICONA1.0 miles 43°2021-06-24 13:45:58
ROSA RENATE1.0 miles 260°2021-06-15 11:37:45 MARIA1.0 miles 254°2021-06-24 12:54:40
Stations which heard OE5ERN-9 directly on radio –
callsign pkts first heard - EDT last heard longest (tx => rx) longest at - EDT
OE6XTR 4 2021-06-04 11:35:52 2021-06-05 11:22:50 JN76SQ > JN77VN 61.5 miles 11° 2021-06-05 04:39:50
OE6XRR 36 2021-06-02 07:48:58 2021-06-06 06:34:07 JN76RP > JN77QC 30.4 miles 352° 2021-06-04 10:31:01
OE5ERN-10 206 2021-06-02 05:25:32 2021-06-21 17:55:00 JN77CU > JN78DH 34.2 miles 10° 2021-06-06 08:15:03
OE3XXR 37 2021-06-06 08:19:18 2021-06-18 06:28:31 JN77BU > JN78GD 27.1 miles 42° 2021-06-06 08:19:18
OE6XLR-11 33 2021-06-02 07:24:56 2021-06-06 07:35:47 JN77FM > JN77OI 35.8 miles 106° 2021-06-06 07:35:47
OE5XIM-10 24 2021-06-02 06:29:48 2021-06-16 11:51:22 JN77BV > JN78DN 47.5 miles 8° 2021-06-06 08:21:15
OE5XGL-10 2 2021-06-06 09:37:31 2021-06-17 06:40:41 JN78DE > JN67VV 28.5 miles 226° 2021-06-17 06:40:41
OE5REO-10 20 2021-06-02 06:35:32 2021-06-17 06:32:04 JN78DH > JN77BV 29.1 miles 191° 2021-06-11 11:49:26
OE5ERN-2 16 2021-06-07 12:47:29 2021-06-13 14:07:53 JN77FW > JN77FV 2.6 miles 171° 2021-06-13 14:07:53
OE3XLR 5 2021-06-07 12:05:09 2021-06-13 14:49:38 JN78DG > JN77TX 64.8 miles 109° 2021-06-09 16:52:19
OE3MUC-15 16 2021-06-06 07:44:57 2021-06-18 06:22:10 JN77DN > JN78SK 84.5 miles 45° 2021-06-06 07:44:57
OE6XBF-11 31 2021-06-02 08:25:58 2021-06-06 06:11:24 JN76RP > JN76XU 25.3 miles 60° 2021-06-04 05:07:23
OE5XHR-10 3 2021-06-02 06:31:49 2021-06-06 09:47:38 JN78AA > JN68XR 50.1 miles 352° 2021-06-02 06:31:49
OE5WWO 102 2021-06-06 09:56:58 2021-06-24 10:35:14 JN78FE > JN78DH 8.9 miles 321° 2021-06-13 14:44:15
S59DTB-10 1 2021-06-04 04:58:59 2021-06-04 04:58:59 JN76RQ > JN86AO 27.2 miles 99° 2021-06-04 04:58:59
OE6XG-1 22 2021-06-02 08:02:19 2021-06-06 06:33:05 JN76RQ > JN77OD 34.3 miles 340° 2021-06-04 05:00:47
OE5XLM-10 6 2021-06-06 09:44:36 2021-06-17 06:30:02 JN78BD > JN78CH 10.6 miles 21° 2021-06-06 09:44:36
9A1AYZ-11 1 2021-06-06 06:00:14 2021-06-06 06:00:14 JN76TR > JN75TR 69.2 miles 180° 2021-06-06 06:00:14
OE6XG-2 15 2021-06-02 07:50:58 2021-06-06 06:41:18 JN76SQ > JN77OF 39.4 miles 339° 2021-06-05 04:40:49
OE3XWJ-10 5 2021-06-07 12:37:55 2021-06-12 05:58:12 JN77EW > JN78QI 52.1 miles 60° 2021-06-07 12:37:55
OE5XOL-10 14 2021-06-06 09:48:38 2021-06-24 10:35:13 JN78FC > JN78DJ 22.4 miles 339° 2021-06-12 05:25:14
OE6XUG-10 1 2021-06-06 06:20:30 2021-06-06 06:20:30 JN77QA > JN77RB 4.6 miles 56° 2021-06-06 06:20:30
OE6XAR-11 1 2021-06-06 06:57:52 2021-06-06 06:57:52 JN77MH > JN77EG 31.3 miles 263° 2021-06-06 06:57:52
OE5ERN-12 16 2021-06-04 04:49:38 2021-06-05 11:32:00 JN76SR > JN76SR 2.5 miles 78° 2021-06-04 04:54:11

Only position packets which were originated by the station are shown here. The range statistics show some extra long hops, because some digipeaters do not correctly add themselves to the digipeater path. Please check the raw packets.
About this site
This page shows real-time information collected from the Automatic Position Reporting System Internet network (APRS-IS). APRS is used by amateur (ham) radio operators to transmit real-time position information, weather data, telemetry and messages over the radio. A vehicle equipped with a GPS receiver, a VHF transmitter or HF transceiver and a small computer device called a tracker transmits it's location, speed and course in a small data packet, which is then received by a nearby iGate receiving site which forwards the packet on the Internet. Systems connected to the Internet can send information on the APRS-IS without a radio transmitter, or collect and display information transmitted anywhere in the world.
User guide · FAQ · Blog · Discussion group · Linking to aprs.fi · AIS sites · Service status · Database statistics · Advertising on aprs.fi · Technical details · API · Change log · Planned changes · Credits and thanks · Terms Of Service · iPhone/iPad APRS